sensor_id;sensor_type;location;lat;lon;timestamp;pressure;altitude;pressure_sealevel;temperature;humidity
6524;BME280;3295;38.928;-77.052;2023-02-16T00:01:46;100724.00;;;21.41;40.70
6524;BME280;3295;38.928;-77.052;2023-02-16T00:04:17;100711.84;;;21.34;40.88
6524;BME280;3295;38.928;-77.052;2023-02-16T00:06:48;100717.06;;;21.37;40.80
6524;BME280;3295;38.928;-77.052;2023-02-16T00:09:16;100718.81;;;21.39;40.94
6524;BME280;3295;38.928;-77.052;2023-02-16T00:11:45;100727.41;;;21.34;40.56
6524;BME280;3295;38.928;-77.052;2023-02-16T00:14:34;100731.75;;;21.35;40.76
6524;BME280;3295;38.928;-77.052;2023-02-16T00:17:02;100730.03;;;21.34;40.73
6524;BME280;3295;38.928;-77.052;2023-02-16T00:19:34;100732.63;;;21.29;40.63
6524;BME280;3295;38.928;-77.052;2023-02-16T00:22:07;100731.75;;;21.28;40.48
6524;BME280;3295;38.928;-77.052;2023-02-16T00:24:36;100725.69;;;21.30;40.58
6524;BME280;3295;38.928;-77.052;2023-02-16T00:27:11;100736.94;;;21.35;40.26
6524;BME280;3295;38.928;-77.052;2023-02-16T00:29:40;100743.00;;;21.38;40.63
6524;BME280;3295;38.928;-77.052;2023-02-16T00:32:11;100731.78;;;21.38;40.00
6524;BME280;3295;38.928;-77.052;2023-02-16T00:34:40;100736.97;;;21.39;40.45
6524;BME280;3295;38.928;-77.052;2023-02-16T00:37:11;100743.03;;;21.40;40.20
6524;BME280;3295;38.928;-77.052;2023-02-16T00:39:40;100751.66;;;21.36;40.71
6524;BME280;3295;38.928;-77.052;2023-02-16T00:42:13;100740.41;;;21.37;40.29
6524;BME280;3295;38.928;-77.052;2023-02-16T00:44:45;100752.53;;;21.38;40.39
6524;BME280;3295;38.928;-77.052;2023-02-16T00:47:17;100747.34;;;21.39;40.61
6524;BME280;3295;38.928;-77.052;2023-02-16T00:49:47;100747.34;;;21.41;40.54
6524;BME280;3295;38.928;-77.052;2023-02-16T00:52:27;100764.66;;;21.42;40.47
6524;BME280;3295;38.928;-77.052;2023-02-16T00:54:56;100759.47;;;21.40;40.82
6524;BME280;3295;38.928;-77.052;2023-02-16T00:57:25;100765.50;;;21.38;40.91
6524;BME280;3295;38.928;-77.052;2023-02-16T00:59:58;100766.38;;;21.40;40.83
6524;BME280;3295;38.928;-77.052;2023-02-16T01:02:28;100761.22;;;21.43;40.83
6524;BME280;3295;38.928;-77.052;2023-02-16T01:04:56;100750.84;;;21.44;41.10
6524;BME280;3295;38.928;-77.052;2023-02-16T01:07:25;100767.25;;;21.39;40.93
6524;BME280;3295;38.928;-77.052;2023-02-16T01:10:10;100762.97;;;21.45;40.97
6524;BME280;3295;38.928;-77.052;2023-02-16T01:12:55;100767.25;;;21.39;41.26
6524;BME280;3295;38.928;-77.052;2023-02-16T01:15:24;100772.44;;;21.40;41.08
6524;BME280;3295;38.928;-77.052;2023-02-16T01:17:52;100766.34;;;21.37;41.66
6524;BME280;3295;38.928;-77.052;2023-02-16T01:20:23;100776.72;;;21.34;41.56
6524;BME280;3295;38.928;-77.052;2023-02-16T01:22:52;100784.50;;;21.35;41.56
6524;BME280;3295;38.928;-77.052;2023-02-16T01:25:20;100778.44;;;21.35;41.38
6524;BME280;3295;38.928;-77.052;2023-02-16T01:27:49;100792.28;;;21.27;42.04
6524;BME280;3295;38.928;-77.052;2023-02-16T01:30:18;100791.38;;;21.25;41.74
6524;BME280;3295;38.928;-77.052;2023-02-16T01:32:46;100798.28;;;21.23;42.10
6524;BME280;3295;38.928;-77.052;2023-02-16T01:35:17;100787.03;;;21.23;42.12
6524;BME280;3295;38.928;-77.052;2023-02-16T01:37:45;100794.81;;;21.21;42.00
6524;BME280;3295;38.928;-77.052;2023-02-16T01:40:22;100804.28;;;21.16;42.21
6524;BME280;3295;38.928;-77.052;2023-02-16T01:42:56;100814.59;;;21.07;42.76
6524;BME280;3295;38.928;-77.052;2023-02-16T01:45:31;100806.84;;;21.10;42.57
6524;BME280;3295;38.928;-77.052;2023-02-16T01:48:03;100820.63;;;21.03;43.11
6524;BME280;3295;38.928;-77.052;2023-02-16T01:50:41;100819.72;;;20.97;43.19
6524;BME280;3295;38.928;-77.052;2023-02-16T01:53:14;100828.31;;;20.94;43.46
6524;BME280;3295;38.928;-77.052;2023-02-16T01:55:50;100829.22;;;20.96;43.58
6524;BME280;3295;38.928;-77.052;2023-02-16T01:58:28;100837.00;;;20.96;43.13
6524;BME280;3295;38.928;-77.052;2023-02-16T02:04:06;100833.44;;;20.83;44.19
6524;BME280;3295;38.928;-77.052;2023-02-16T02:06:52;100834.31;;;20.82;44.53
6524;BME280;3295;38.928;-77.052;2023-02-16T02:09:27;100830.88;;;20.85;44.53
6524;BME280;3295;38.928;-77.052;2023-02-16T02:12:04;100834.31;;;20.82;44.55
6524;BME280;3295;38.928;-77.052;2023-02-16T02:14:38;100832.53;;;20.77;44.49
6524;BME280;3295;38.928;-77.052;2023-02-16T02:17:08;100840.31;;;20.75;44.60
6524;BME280;3295;38.928;-77.052;2023-02-16T02:19:45;100828.19;;;20.73;44.71
6524;BME280;3295;38.928;-77.052;2023-02-16T02:25:50;100855.84;;;20.75;45.25
6524;BME280;3295;38.928;-77.052;2023-02-16T02:28:32;100853.22;;;20.71;45.21
6524;BME280;3295;38.928;-77.052;2023-02-16T02:31:08;100861.00;;;20.71;45.33
6524;BME280;3295;38.928;-77.052;2023-02-16T02:33:47;100854.06;;;20.70;45.20
6524;BME280;3295;38.928;-77.052;2023-02-16T02:36:26;100863.59;;;20.71;45.44
6524;BME280;3295;38.928;-77.052;2023-02-16T02:39:06;100847.13;;;20.67;45.51
6524;BME280;3295;38.928;-77.052;2023-02-16T02:41:43;100854.88;;;20.66;45.64
6524;BME280;3295;38.928;-77.052;2023-02-16T02:44:34;100872.16;;;20.61;45.68
6524;BME280;3295;38.928;-77.052;2023-02-16T02:47:04;100868.66;;;20.58;45.99
6524;BME280;3295;38.928;-77.052;2023-02-16T02:49:32;100879.00;;;20.55;46.10
6524;BME280;3295;38.928;-77.052;2023-02-16T02:52:01;100873.00;;;20.60;46.13
6524;BME280;3295;38.928;-77.052;2023-02-16T02:54:30;100869.56;;;20.61;46.03
6524;BME280;3295;38.928;-77.052;2023-02-16T02:57:22;100868.63;;;20.55;46.32
6524;BME280;3295;38.928;-77.052;2023-02-16T03:00:13;100875.59;;;20.60;46.14
6524;BME280;3295;38.928;-77.052;2023-02-16T03:03:01;100877.28;;;20.57;46.50
6524;BME280;3295;38.928;-77.052;2023-02-16T03:05:32;100880.75;;;20.56;46.59
6524;BME280;3295;38.928;-77.052;2023-02-16T03:08:04;100887.63;;;20.54;46.50
6524;BME280;3295;38.928;-77.052;2023-02-16T03:10:41;100888.44;;;20.49;46.64
6524;BME280;3295;38.928;-77.052;2023-02-16T03:13:30;100885.84;;;20.50;46.92
6524;BME280;3295;38.928;-77.052;2023-02-16T03:16:04;100884.06;;;20.43;46.97
6524;BME280;3295;38.928;-77.052;2023-02-16T03:18:34;100891.03;;;20.47;47.15
6524;BME280;3295;38.928;-77.052;2023-02-16T03:21:21;100897.88;;;20.42;47.19
6524;BME280;3295;38.928;-77.052;2023-02-16T03:24:08;100898.69;;;20.40;47.42
6524;BME280;3295;38.928;-77.052;2023-02-16T03:26:56;100902.16;;;20.40;47.34
6524;BME280;3295;38.928;-77.052;2023-02-16T03:29:43;100896.00;;;20.32;47.65
6524;BME280;3295;38.928;-77.052;2023-02-16T03:32:14;100888.28;;;20.35;47.46
6524;BME280;3295;38.928;-77.052;2023-02-16T03:34:42;100889.13;;;20.34;47.75
6524;BME280;3295;38.928;-77.052;2023-02-16T03:37:10;100887.38;;;20.33;47.66
6524;BME280;3295;38.928;-77.052;2023-02-16T03:39:39;100894.31;;;20.34;47.75
6524;BME280;3295;38.928;-77.052;2023-02-16T03:42:22;100897.66;;;20.27;48.09
6524;BME280;3295;38.928;-77.052;2023-02-16T03:44:50;100896.84;;;20.30;48.16
6524;BME280;3295;38.928;-77.052;2023-02-16T03:47:19;100900.22;;;20.21;48.45
6524;BME280;3295;38.928;-77.052;2023-02-16T03:49:47;100901.06;;;20.20;48.50
6524;BME280;3295;38.928;-77.052;2023-02-16T03:52:15;100896.75;;;20.20;48.78
6524;BME280;3295;38.928;-77.052;2023-02-16T03:54:43;100897.63;;;20.21;48.58
6524;BME280;3295;38.928;-77.052;2023-02-16T03:57:11;100895.88;;;20.20;48.91
6524;BME280;3295;38.928;-77.052;2023-02-16T03:59:39;100894.13;;;20.19;48.85
6524;BME280;3295;38.928;-77.052;2023-02-16T04:02:07;100890.69;;;20.18;48.87
6524;BME280;3295;38.928;-77.052;2023-02-16T04:04:37;100888.91;;;20.16;49.10
6524;BME280;3295;38.928;-77.052;2023-02-16T04:07:05;100889.78;;;20.15;49.20
6524;BME280;3295;38.928;-77.052;2023-02-16T04:09:33;100885.47;;;20.17;49.16
6524;BME280;3295;38.928;-77.052;2023-02-16T04:12:01;100882.94;;;20.20;49.10
6524;BME280;3295;38.928;-77.052;2023-02-16T04:14:46;100888.91;;;20.16;49.41
6524;BME280;3295;38.928;-77.052;2023-02-16T04:17:14;100882.88;;;20.15;49.29
6524;BME280;3295;38.928;-77.052;2023-02-16T04:19:44;100865.50;;;20.05;49.89
6524;BME280;3295;38.928;-77.052;2023-02-16T04:22:12;100879.41;;;20.15;49.62
6524;BME280;3295;38.928;-77.052;2023-02-16T04:24:40;100881.97;;;20.12;49.46
6524;BME280;3295;38.928;-77.052;2023-02-16T04:27:08;100888.81;;;20.07;49.82
6524;BME280;3295;38.928;-77.052;2023-02-16T04:29:36;100892.22;;;20.03;49.80
6524;BME280;3295;38.928;-77.052;2023-02-16T04:32:04;100894.75;;;20.00;50.04
6524;BME280;3295;38.928;-77.052;2023-02-16T04:34:32;100902.53;;;20.00;50.18
6524;BME280;3295;38.928;-77.052;2023-02-16T04:37:01;100905.97;;;19.99;50.29
6524;BME280;3295;38.928;-77.052;2023-02-16T04:39:30;100913.75;;;19.99;50.22
6524;BME280;3295;38.928;-77.052;2023-02-16T04:41:58;100921.50;;;19.99;50.69
6524;BME280;3295;38.928;-77.052;2023-02-16T04:44:26;100916.31;;;19.99;50.66
6524;BME280;3295;38.928;-77.052;2023-02-16T04:46:54;100918.84;;;19.93;50.53
6524;BME280;3295;38.928;-77.052;2023-02-16T04:49:22;100916.25;;;19.91;50.83
6524;BME280;3295;38.928;-77.052;2023-02-16T04:51:50;100916.94;;;19.78;51.32
6524;BME280;3295;38.928;-77.052;2023-02-16T04:54:20;100915.25;;;19.80;51.19
6524;BME280;3295;38.928;-77.052;2023-02-16T04:56:48;100917.81;;;19.78;51.45
6524;BME280;3295;38.928;-77.052;2023-02-16T04:59:16;100914.38;;;19.79;51.31
6524;BME280;3295;38.928;-77.052;2023-02-16T05:01:44;100921.25;;;19.77;51.48
6524;BME280;3295;38.928;-77.052;2023-02-16T05:04:12;100916.03;;;19.74;51.73
6524;BME280;3295;38.928;-77.052;2023-02-16T05:06:39;100919.47;;;19.73;51.93
6524;BME280;3295;38.928;-77.052;2023-02-16T05:09:08;100920.31;;;19.74;51.73
6524;BME280;3295;38.928;-77.052;2023-02-16T05:11:37;100918.53;;;19.67;51.86
6524;BME280;3295;38.928;-77.052;2023-02-16T05:14:24;100927.09;;;19.64;52.00
6524;BME280;3295;38.928;-77.052;2023-02-16T05:17:11;100924.47;;;19.61;52.14
6524;BME280;3295;38.928;-77.052;2023-02-16T05:19:40;100929.66;;;19.61;51.94
6524;BME280;3295;38.928;-77.052;2023-02-16T05:22:08;100927.03;;;19.60;52.32
6524;BME280;3295;38.928;-77.052;2023-02-16T05:24:37;100931.34;;;19.59;52.37
6524;BME280;3295;38.928;-77.052;2023-02-16T05:27:10;100938.00;;;19.45;52.78
6524;BME280;3295;38.928;-77.052;2023-02-16T05:29:38;100937.81;;;19.33;53.16
6524;BME280;3295;38.928;-77.052;2023-02-16T05:32:06;100938.75;;;19.38;53.18
6524;BME280;3295;38.928;-77.052;2023-02-16T05:34:34;100946.53;;;19.38;53.36
6524;BME280;3295;38.928;-77.052;2023-02-16T05:37:02;100946.34;;;19.29;53.69
6524;BME280;3295;38.928;-77.052;2023-02-16T05:39:30;100948.06;;;19.27;53.66
6524;BME280;3295;38.928;-77.052;2023-02-16T05:41:59;100948.03;;;19.24;53.81
6524;BME280;3295;38.928;-77.052;2023-02-16T05:44:28;100941.91;;;19.20;54.00
6524;BME280;3295;38.928;-77.052;2023-02-16T05:46:56;100954.81;;;19.18;53.97
6524;BME280;3295;38.928;-77.052;2023-02-16T05:49:24;100947.84;;;19.13;54.61
6524;BME280;3295;38.928;-77.052;2023-02-16T05:51:52;100949.47;;;19.06;54.96
6524;BME280;3295;38.928;-77.052;2023-02-16T05:54:20;100943.31;;;19.01;54.64
6524;BME280;3295;38.928;-77.052;2023-02-16T05:56:49;100947.44;;;18.90;54.80
6524;BME280;3295;38.928;-77.052;2023-02-16T05:59:18;100957.69;;;18.84;55.36
6524;BME280;3295;38.928;-77.052;2023-02-16T06:01:47;100949.75;;;18.75;55.11
6524;BME280;3295;38.928;-77.052;2023-02-16T06:04:15;100961.56;;;18.61;55.68
6524;BME280;3295;38.928;-77.052;2023-02-16T06:06:43;100959.44;;;18.41;56.15
6524;BME280;3295;38.928;-77.052;2023-02-16T06:09:11;100949.81;;;18.34;56.43
6524;BME280;3295;38.928;-77.052;2023-02-16T06:11:39;100949.66;;;18.25;57.45
6524;BME280;3295;38.928;-77.052;2023-02-16T06:14:08;100939.63;;;17.98;58.85
6524;BME280;3295;38.928;-77.052;2023-02-16T06:16:38;100939.47;;;17.91;59.05
6524;BME280;3295;38.928;-77.052;2023-02-16T06:19:08;100934.94;;;17.81;59.50
6524;BME280;3295;38.928;-77.052;2023-02-16T06:21:37;100940.53;;;17.61;60.54
6524;BME280;3295;38.928;-77.052;2023-02-16T06:24:06;100936.06;;;17.54;61.96
6524;BME280;3295;38.928;-77.052;2023-02-16T06:26:35;100941.00;;;17.45;63.41
6524;BME280;3295;38.928;-77.052;2023-02-16T06:29:03;100937.59;;;17.46;63.96
6524;BME280;3295;38.928;-77.052;2023-02-16T06:31:32;100934.13;;;17.44;63.90
6524;BME280;3295;38.928;-77.052;2023-02-16T06:34:00;100933.91;;;17.35;63.82
6524;BME280;3295;38.928;-77.052;2023-02-16T06:36:30;100938.19;;;17.36;64.00
6524;BME280;3295;38.928;-77.052;2023-02-16T06:38:58;100940.72;;;17.33;64.43
6524;BME280;3295;38.928;-77.052;2023-02-16T06:41:25;100951.00;;;17.31;64.92
6524;BME280;3295;38.928;-77.052;2023-02-16T06:44:04;100952.56;;;17.25;65.03
6524;BME280;3295;38.928;-77.052;2023-02-16T06:46:32;100954.00;;;17.14;65.76
6524;BME280;3295;38.928;-77.052;2023-02-16T06:49:00;100962.56;;;17.13;65.87
6524;BME280;3295;38.928;-77.052;2023-02-16T06:51:30;100960.81;;;17.12;65.68
6524;BME280;3295;38.928;-77.052;2023-02-16T06:53:58;100953.78;;;17.04;65.78
6524;BME280;3295;38.928;-77.052;2023-02-16T06:56:26;100957.91;;;16.98;67.05
6524;BME280;3295;38.928;-77.052;2023-02-16T06:58:54;100960.28;;;16.90;67.45
6524;BME280;3295;38.928;-77.052;2023-02-16T07:01:21;100961.34;;;16.98;66.78
6524;BME280;3295;38.928;-77.052;2023-02-16T07:03:51;100967.94;;;16.87;67.60
6524;BME280;3295;38.928;-77.052;2023-02-16T07:06:20;100967.81;;;16.83;66.86
6524;BME280;3295;38.928;-77.052;2023-02-16T07:08:50;100960.53;;;16.66;68.31
6524;BME280;3295;38.928;-77.052;2023-02-16T07:11:18;100960.19;;;16.56;69.05
6524;BME280;3295;38.928;-77.052;2023-02-16T07:13:46;100969.13;;;16.37;70.97
6524;BME280;3295;38.928;-77.052;2023-02-16T07:16:14;100964.63;;;16.30;71.86
6524;BME280;3295;38.928;-77.052;2023-02-16T07:18:42;100965.97;;;16.17;73.10
6524;BME280;3295;38.928;-77.052;2023-02-16T07:21:11;100955.91;;;15.95;75.11
6524;BME280;3295;38.928;-77.052;2023-02-16T07:23:39;100960.94;;;15.92;76.53
6524;BME280;3295;38.928;-77.052;2023-02-16T07:26:08;100968.47;;;15.86;76.65
6524;BME280;3295;38.928;-77.052;2023-02-16T07:28:36;100964.91;;;15.81;78.03
6524;BME280;3295;38.928;-77.052;2023-02-16T07:31:06;100969.22;;;15.82;78.42
6524;BME280;3295;38.928;-77.052;2023-02-16T07:33:34;100966.00;;;15.89;77.02
6524;BME280;3295;38.928;-77.052;2023-02-16T07:36:03;100967.66;;;15.87;77.19
6524;BME280;3295;38.928;-77.052;2023-02-16T07:38:31;100963.25;;;15.83;77.54
6524;BME280;3295;38.928;-77.052;2023-02-16T07:40:59;100955.63;;;15.86;79.05
6524;BME280;3295;38.928;-77.052;2023-02-16T07:43:28;100950.41;;;15.83;79.83
6524;BME280;3295;38.928;-77.052;2023-02-16T07:45:56;100950.41;;;15.83;79.85
6524;BME280;3295;38.928;-77.052;2023-02-16T07:48:24;100951.06;;;15.77;78.78
6524;BME280;3295;38.928;-77.052;2023-02-16T07:50:52;100942.84;;;15.60;80.27
6524;BME280;3295;38.928;-77.052;2023-02-16T07:53:20;100938.47;;;15.56;82.55
6524;BME280;3295;38.928;-77.052;2023-02-16T07:55:48;100936.75;;;15.57;84.37
6524;BME280;3295;38.928;-77.052;2023-02-16T07:58:15;100937.13;;;15.69;82.69
6524;BME280;3295;38.928;-77.052;2023-02-16T08:00:54;100948.28;;;15.70;82.15
6524;BME280;3295;38.928;-77.052;2023-02-16T08:03:22;100946.59;;;15.72;81.21
6524;BME280;3295;38.928;-77.052;2023-02-16T08:05:50;100945.56;;;15.65;81.76
6524;BME280;3295;38.928;-77.052;2023-02-16T08:08:18;100958.28;;;15.60;80.82
6524;BME280;3295;38.928;-77.052;2023-02-16T08:10:46;100956.47;;;15.56;80.57
6524;BME280;3295;38.928;-77.052;2023-02-16T08:13:15;100963.09;;;15.51;81.57
6524;BME280;3295;38.928;-77.052;2023-02-16T08:15:42;100962.66;;;15.38;82.65
6524;BME280;3295;38.928;-77.052;2023-02-16T08:18:12;100951.47;;;15.36;82.29
6524;BME280;3295;38.928;-77.052;2023-02-16T08:20:40;100955.06;;;15.14;84.95
6524;BME280;3295;38.928;-77.052;2023-02-16T08:23:08;100959.88;;;15.05;84.30
6524;BME280;3295;38.928;-77.052;2023-02-16T08:25:36;100970.84;;;14.99;85.97
6524;BME280;3295;38.928;-77.052;2023-02-16T08:28:04;100971.38;;;14.90;87.92
6524;BME280;3295;38.928;-77.052;2023-02-16T08:30:33;100965.53;;;14.94;89.43
6524;BME280;3295;38.928;-77.052;2023-02-16T08:33:01;100973.50;;;15.02;88.71
6524;BME280;3295;38.928;-77.052;2023-02-16T08:35:30;100958.13;;;15.04;87.90
6524;BME280;3295;38.928;-77.052;2023-02-16T08:37:58;100958.53;;;14.90;88.95
6524;BME280;3295;38.928;-77.052;2023-02-16T08:40:27;100960.69;;;14.78;89.46
6524;BME280;3295;38.928;-77.052;2023-02-16T08:42:55;100964.69;;;14.70;89.30
6524;BME280;3295;38.928;-77.052;2023-02-16T08:45:22;100961.91;;;14.64;91.45
6524;BME280;3295;38.928;-77.052;2023-02-16T08:47:50;100972.28;;;14.67;92.36
6524;BME280;3295;38.928;-77.052;2023-02-16T08:50:19;100977.41;;;14.67;91.75
6524;BME280;3295;38.928;-77.052;2023-02-16T08:52:49;100978.97;;;14.62;90.95
6524;BME280;3295;38.928;-77.052;2023-02-16T08:55:16;100977.06;;;14.56;91.88
6524;BME280;3295;38.928;-77.052;2023-02-16T08:57:44;100976.19;;;14.56;91.51
6524;BME280;3295;38.928;-77.052;2023-02-16T09:00:13;100971.63;;;14.49;91.54
6524;BME280;3295;38.928;-77.052;2023-02-16T09:02:59;100976.28;;;14.37;91.81
6524;BME280;3295;38.928;-77.052;2023-02-16T09:05:27;100977.72;;;14.29;91.61
6524;BME280;3295;38.928;-77.052;2023-02-16T09:07:57;100968.88;;;14.20;92.25
6524;BME280;3295;38.928;-77.052;2023-02-16T09:10:24;100967.13;;;14.19;93.87
6524;BME280;3295;38.928;-77.052;2023-02-16T09:12:52;100968.97;;;14.23;95.13
6524;BME280;3295;38.928;-77.052;2023-02-16T09:15:21;100969.22;;;14.30;94.74
6524;BME280;3295;38.928;-77.052;2023-02-16T09:17:49;100974.53;;;14.36;93.44
6524;BME280;3295;38.928;-77.052;2023-02-16T09:20:17;100969.53;;;14.39;92.55
6524;BME280;3295;38.928;-77.052;2023-02-16T09:22:46;100972.91;;;14.38;92.44
6524;BME280;3295;38.928;-77.052;2023-02-16T09:25:16;100982.25;;;14.36;92.87
6524;BME280;3295;38.928;-77.052;2023-02-16T09:27:44;100982.31;;;14.37;92.41
6524;BME280;3295;38.928;-77.052;2023-02-16T09:30:12;100984.06;;;14.38;92.51
6524;BME280;3295;38.928;-77.052;2023-02-16T09:32:40;100985.66;;;14.35;92.68
6524;BME280;3295;38.928;-77.052;2023-02-16T09:35:08;100981.56;;;14.40;94.54
6524;BME280;3295;38.928;-77.052;2023-02-16T09:37:37;100984.16;;;14.40;92.75
6524;BME280;3295;38.928;-77.052;2023-02-16T09:40:06;100992.34;;;14.31;91.92
6524;BME280;3295;38.928;-77.052;2023-02-16T09:42:46;100993.59;;;14.18;93.49
6524;BME280;3295;38.928;-77.052;2023-02-16T09:45:18;100990.09;;;13.94;95.33
6524;BME280;3295;38.928;-77.052;2023-02-16T09:47:49;101003.50;;;13.87;96.18
6524;BME280;3295;38.928;-77.052;2023-02-16T09:50:21;101009.22;;;13.80;97.19
6524;BME280;3295;38.928;-77.052;2023-02-16T09:52:53;101032.03;;;13.74;98.10
6524;BME280;3295;38.928;-77.052;2023-02-16T09:55:24;101031.78;;;13.68;99.58
6524;BME280;3295;38.928;-77.052;2023-02-16T09:58:03;101036.81;;;13.65;100.00
6524;BME280;3295;38.928;-77.052;2023-02-16T10:00:47;101031.19;;;13.52;100.00
6524;BME280;3295;38.928;-77.052;2023-02-16T10:03:25;101024.19;;;13.48;100.00
6524;BME280;3295;38.928;-77.052;2023-02-16T10:06:01;101020.41;;;13.40;100.00
6524;BME280;3295;38.928;-77.052;2023-02-16T10:08:34;101021.03;;;13.56;100.00
6524;BME280;3295;38.928;-77.052;2023-02-16T10:11:10;101017.53;;;13.53;100.00
6524;BME280;3295;38.928;-77.052;2023-02-16T10:13:55;101014.56;;;13.43;100.00
6524;BME280;3295;38.928;-77.052;2023-02-16T10:16:30;101006.56;;;13.35;100.00
6524;BME280;3295;38.928;-77.052;2023-02-16T10:19:04;101005.03;;;13.39;100.00
6524;BME280;3295;38.928;-77.052;2023-02-16T10:21:39;101009.94;;;13.34;100.00
6524;BME280;3295;38.928;-77.052;2023-02-16T10:24:11;101011.69;;;13.35;100.00
6524;BME280;3295;38.928;-77.052;2023-02-16T10:26:44;101007.00;;;13.46;100.00
6524;BME280;3295;38.928;-77.052;2023-02-16T10:29:16;101012.41;;;13.53;100.00
6524;BME280;3295;38.928;-77.052;2023-02-16T10:31:50;101008.81;;;13.48;100.00
6524;BME280;3295;38.928;-77.052;2023-02-16T10:34:34;101000.88;;;13.42;100.00
6524;BME280;3295;38.928;-77.052;2023-02-16T10:37:15;100994.19;;;13.46;100.00
6524;BME280;3295;38.928;-77.052;2023-02-16T10:39:50;100994.72;;;13.37;100.00
6524;BME280;3295;38.928;-77.052;2023-02-16T10:42:26;100982.72;;;13.36;100.00
6524;BME280;3295;38.928;-77.052;2023-02-16T10:45:03;100977.31;;;13.30;100.00
6524;BME280;3295;38.928;-77.052;2023-02-16T10:47:35;100980.97;;;13.35;100.00
6524;BME280;3295;38.928;-77.052;2023-02-16T10:50:04;100968.69;;;13.49;100.00
6524;BME280;3295;38.928;-77.052;2023-02-16T10:52:37;100967.44;;;13.39;100.00
6524;BME280;3295;38.928;-77.052;2023-02-16T10:55:07;100970.59;;;13.32;100.00
6524;BME280;3295;38.928;-77.052;2023-02-16T10:57:35;100984.19;;;13.31;100.00
6524;BME280;3295;38.928;-77.052;2023-02-16T11:00:07;100989.75;;;13.42;100.00
6524;BME280;3295;38.928;-77.052;2023-02-16T11:02:39;100980.31;;;13.41;100.00
6524;BME280;3295;38.928;-77.052;2023-02-16T11:05:35;100973.72;;;13.25;100.00
6524;BME280;3295;38.928;-77.052;2023-02-16T11:08:06;100965.63;;;12.95;100.00
6524;BME280;3295;38.928;-77.052;2023-02-16T11:10:39;100964.03;;;12.99;100.00
6524;BME280;3295;38.928;-77.052;2023-02-16T11:13:27;100964.03;;;12.99;100.00
6524;BME280;3295;38.928;-77.052;2023-02-16T11:15:59;100966.66;;;13.00;100.00
6524;BME280;3295;38.928;-77.052;2023-02-16T11:18:33;100960.66;;;13.00;100.00
6524;BME280;3295;38.928;-77.052;2023-02-16T11:21:01;100967.31;;;12.95;100.00
6524;BME280;3295;38.928;-77.052;2023-02-16T11:23:30;100951.66;;;12.89;100.00
6524;BME280;3295;38.928;-77.052;2023-02-16T11:26:00;100957.66;;;12.89;100.00
6524;BME280;3295;38.928;-77.052;2023-02-16T11:28:32;100963.22;;;13.00;100.00
6524;BME280;3295;38.928;-77.052;2023-02-16T11:31:10;100971.09;;;13.04;100.00
6524;BME280;3295;38.928;-77.052;2023-02-16T11:33:39;100981.28;;;13.03;100.00
6524;BME280;3295;38.928;-77.052;2023-02-16T11:36:24;100981.56;;;13.09;100.00
6524;BME280;3295;38.928;-77.052;2023-02-16T11:38:59;100986.66;;;13.09;100.00
6524;BME280;3295;38.928;-77.052;2023-02-16T11:41:29;100993.63;;;13.11;100.00
6524;BME280;3295;38.928;-77.052;2023-02-16T11:43:58;101001.03;;;13.25;100.00
6524;BME280;3295;38.928;-77.052;2023-02-16T11:46:37;101005.75;;;13.36;100.00
6524;BME280;3295;38.928;-77.052;2023-02-16T11:49:29;100998.00;;;13.35;100.00
6524;BME280;3295;38.928;-77.052;2023-02-16T11:51:57;101002.19;;;13.33;100.00
6524;BME280;3295;38.928;-77.052;2023-02-16T11:54:25;101011.44;;;13.29;100.00
6524;BME280;3295;38.928;-77.052;2023-02-16T11:57:04;101000.06;;;13.23;100.00
6524;BME280;3295;38.928;-77.052;2023-02-16T11:59:35;101000.25;;;13.27;100.00
6524;BME280;3295;38.928;-77.052;2023-02-16T12:02:23;100987.22;;;13.21;100.00
6524;BME280;3295;38.928;-77.052;2023-02-16T12:05:06;101005.75;;;13.36;100.00
6524;BME280;3295;38.928;-77.052;2023-02-16T12:07:39;100999.25;;;13.44;100.00
6524;BME280;3295;38.928;-77.052;2023-02-16T12:10:11;100984.31;;;13.34;100.00
6524;BME280;3295;38.928;-77.052;2023-02-16T12:12:47;100991.06;;;13.32;100.00
6524;BME280;3295;38.928;-77.052;2023-02-16T12:15:24;100996.88;;;13.28;100.00
6524;BME280;3295;38.928;-77.052;2023-02-16T12:18:05;100988.97;;;13.22;100.00
6524;BME280;3295;38.928;-77.052;2023-02-16T12:20:46;100999.66;;;13.13;100.00
6524;BME280;3295;38.928;-77.052;2023-02-16T12:23:27;101004.06;;;13.16;100.00
6524;BME280;3295;38.928;-77.052;2023-02-16T12:26:33;101000.16;;;13.05;100.00
6524;BME280;3295;38.928;-77.052;2023-02-16T12:29:11;100988.16;;;13.04;100.00
6524;BME280;3295;38.928;-77.052;2023-02-16T12:31:59;100981.06;;;13.18;100.00
6524;BME280;3295;38.928;-77.052;2023-02-16T12:34:42;100971.56;;;13.15;100.00
6524;BME280;3295;38.928;-77.052;2023-02-16T12:37:20;100965.56;;;13.14;100.00
6524;BME280;3295;38.928;-77.052;2023-02-16T12:39:55;100977.09;;;13.24;100.00
6524;BME280;3295;38.928;-77.052;2023-02-16T12:42:38;100983.38;;;13.32;100.00
6524;BME280;3295;38.928;-77.052;2023-02-16T12:45:13;100981.09;;;13.38;100.00
6524;BME280;3295;38.928;-77.052;2023-02-16T12:47:47;100973.34;;;13.37;100.00
6524;BME280;3295;38.928;-77.052;2023-02-16T12:50:22;100965.81;;;13.41;100.00
6524;BME280;3295;38.928;-77.052;2023-02-16T12:52:54;100956.03;;;13.53;100.00
6524;BME280;3295;38.928;-77.052;2023-02-16T12:55:26;100963.13;;;13.59;100.00
6524;BME280;3295;38.928;-77.052;2023-02-16T12:58:08;100961.28;;;13.57;100.00
6524;BME280;3295;38.928;-77.052;2023-02-16T13:00:41;100973.44;;;13.61;100.00
6524;BME280;3295;38.928;-77.052;2023-02-16T13:03:24;100983.06;;;13.66;100.00
6524;BME280;3295;38.928;-77.052;2023-02-16T13:06:03;100978.34;;;13.77;100.00
6524;BME280;3295;38.928;-77.052;2023-02-16T13:08:37;101005.38;;;13.91;100.00
6524;BME280;3295;38.928;-77.052;2023-02-16T13:11:12;101018.78;;;14.06;100.00
6524;BME280;3295;38.928;-77.052;2023-02-16T13:13:42;101069.63;;;14.16;100.00
6524;BME280;3295;38.928;-77.052;2023-02-16T13:16:15;101070.09;;;14.29;100.00
6524;BME280;3295;38.928;-77.052;2023-02-16T13:18:46;101032.41;;;14.28;100.00
6524;BME280;3295;38.928;-77.052;2023-02-16T13:24:25;101032.66;;;14.56;100.00